Rechercher aéroport 
image banner adimage banner adimage banner ad
image banner ad

7PA1 - Warren Airpark

Situé à Warren, United States

ICAO - 7PA1, IATA -

Données fournies par Airmate  

Information générale

Coordonnées: N41°51'57" W79°12'22"
Élévation : 1790 feet MSL.
Variation magnétique : -09° East
Voir autres Aéroports à Pennsylvania

Données opérationnelles

Special qualification required
Heure actuelle UTC:
Heure actuelle locale:
Météo à : KJHW - Chautauqua County/Jamestown ( 32 km )
METAR: KJHW 150456Z AUTO 33004KT 10SM CLR 12/12 A2988 RMK AO2 SLP123 T01220117 402060111
TAF: KJHW 150259Z 1503/1524 VRB06KT P6SM SCT150 FM150700 32005KT 6SM -SHRA BKN007 FM150900 32004KT 4SM -SHRA BKN003 FM151100 30005KT P6SM BKN007 FM151400 32008KT P6SM BKN015 FM151600 32010G16KT P6SM BKN060
Voir NOTAMs / SUP AIP / TFR affectant cet aéroport [VIEW]
Fréquences de communication: [VIEW]

Pistes:

Identifiant RWYQFULongueur (ft)Largeur (ft)SurfaceLDA (ft)
061900100GRASS
241900100GRASS

Coordonnées de l'aéroport

Adresse: Warren United States

Vue satellite de 7PA1